createdAt,value
2018-09-02T00:04:42.376Z,7.29
2018-09-02T00:08:42.901Z,6.56
2018-09-02T00:10:43.458Z,7.5
2018-09-02T00:14:44.047Z,8.29
2018-09-02T00:20:44.761Z,6.04
2018-09-02T00:24:45.355Z,5.53
2018-09-02T00:30:46.178Z,5.79
2018-09-02T00:34:46.706Z,8.28
2018-09-02T00:36:47.183Z,6.45
2018-09-02T00:40:47.676Z,6.8
2018-09-02T00:46:48.173Z,7.54
2018-09-02T00:50:48.638Z,5.75
2018-09-02T00:56:49.198Z,7.49
2018-09-02T01:02:49.751Z,7.33
2018-09-02T01:06:50.248Z,8.27
2018-09-02T01:12:50.698Z,5.36
2018-09-02T01:16:51.154Z,7.08
2018-09-02T01:22:51.767Z,6.32
2018-09-02T01:28:52.195Z,6.7
2018-09-02T01:32:52.768Z,7.27
2018-09-02T01:38:53.261Z,7.23
2018-09-02T01:42:53.689Z,8.05
2018-09-02T01:48:54.206Z,5.53
2018-09-02T01:54:54.729Z,6.55
2018-09-02T01:58:55.189Z,7.68
2018-09-02T02:04:55.728Z,6.27
2018-09-02T02:08:56.251Z,6.72
2018-09-02T02:10:56.708Z,6.46
2018-09-02T02:14:57.172Z,6.15
2018-09-02T02:20:57.702Z,7.3
2018-09-02T02:24:58.208Z,7.98
2018-09-02T02:30:58.766Z,5.73
2018-09-02T02:34:59.265Z,6.67
2018-09-02T02:36:59.751Z,6.08
2018-09-02T02:41:00.282Z,5.84
2018-09-02T02:47:00.785Z,7.25
2018-09-02T02:51:01.332Z,7.4
2018-09-02T02:57:01.885Z,6.62
2018-09-02T03:03:02.457Z,5.84
2018-09-02T03:07:02.917Z,7.29
2018-09-02T03:13:03.514Z,6.79
2018-09-02T03:17:03.999Z,8
2018-09-02T03:23:04.414Z,6.67
2018-09-02T03:29:04.946Z,6.46
2018-09-02T03:33:05.466Z,5.76
2018-09-02T03:39:05.933Z,5.24
2018-09-02T03:43:06.478Z,6.06
2018-09-02T03:45:07.454Z,8.33
2018-09-02T03:49:07.878Z,8.16
2018-09-02T03:55:08.435Z,6.15
2018-09-02T03:59:08.972Z,7.19
2018-09-02T04:05:09.502Z,5.99
2018-09-02T04:09:09.993Z,6.59
2018-09-02T04:11:10.496Z,7.41
2018-09-02T04:15:11.410Z,6.94
2018-09-02T04:21:11.961Z,7.38
2018-09-02T04:25:12.499Z,7.35
2018-09-02T04:31:13.022Z,6.35
2018-09-02T04:35:13.523Z,7.06
2018-09-02T04:37:14.008Z,8.05
2018-09-02T04:41:14.543Z,7.25
2018-09-02T04:47:15.092Z,5.82
2018-09-02T04:51:15.668Z,6.95
2018-09-02T04:57:16.182Z,5.93
2018-09-02T05:03:16.690Z,5.78
2018-09-02T05:07:17.231Z,6.44
2018-09-02T05:13:17.777Z,5.83
2018-09-02T05:17:18.357Z,5.13
2018-09-02T05:23:18.827Z,6.85
2018-09-02T05:29:19.384Z,6.91
2018-09-02T05:33:19.852Z,5.75
2018-09-02T05:39:20.470Z,5
2018-09-02T05:43:20.955Z,7.08
2018-09-02T05:45:21.931Z,7.22
2018-09-02T05:49:22.460Z,5.92
2018-09-02T05:55:22.958Z,7.36
2018-09-02T05:59:23.486Z,8.44
2018-09-02T06:05:23.968Z,13.9
2018-09-02T06:09:24.473Z,12.2
2018-09-02T06:11:24.963Z,9.06
2018-09-02T06:15:26.059Z,13.11
2018-09-02T06:21:26.518Z,18.3
2018-09-02T06:25:26.984Z,19.88
2018-09-02T06:31:27.571Z,14.45
2018-09-02T06:37:28.089Z,9.32
2018-09-02T06:41:28.654Z,9.36
2018-09-02T06:47:29.219Z,6.84
2018-09-02T06:51:29.698Z,6.84
2018-09-02T06:57:30.254Z,6.33
2018-09-02T07:03:30.734Z,6.25
2018-09-02T07:07:31.289Z,6.8
2018-09-02T07:13:31.821Z,5.6
2018-09-02T07:17:32.268Z,5.96
2018-09-02T07:23:32.717Z,5.83
2018-09-02T07:29:33.525Z,5.9
2018-09-02T07:33:34.125Z,5.87
2018-09-02T07:39:34.633Z,4.9
2018-09-02T07:43:35.177Z,6.58
2018-09-02T07:45:35.700Z,7.34
2018-09-02T07:49:36.265Z,5.79
2018-09-02T07:55:36.808Z,5.49
2018-09-02T07:59:37.270Z,5.19
2018-09-02T08:05:37.725Z,5.8
2018-09-02T08:09:38.184Z,5.32
2018-09-02T08:11:38.688Z,5.69
2018-09-02T08:15:39.262Z,4.41
2018-09-02T08:21:39.821Z,5.12
2018-09-02T08:25:40.372Z,5.94
2018-09-02T08:31:40.926Z,5.05
2018-09-02T08:37:41.501Z,8.58
2018-09-02T08:41:42.015Z,6.1
2018-09-02T08:47:42.557Z,6.43
2018-09-02T08:51:43.144Z,6.56
2018-09-02T08:57:43.618Z,8.28
2018-09-02T09:03:44.203Z,4.87
2018-09-02T09:07:44.945Z,4.43
2018-09-02T09:13:45.269Z,6.5
2018-09-02T09:17:45.811Z,4.73
2018-09-02T09:19:46.315Z,6.75
2018-09-02T09:23:46.861Z,5.79
2018-09-02T09:29:47.394Z,9.02
2018-09-02T09:33:47.864Z,7.9
2018-09-02T09:39:49.119Z,6.69
2018-09-02T09:43:50.409Z,6.87
2018-09-02T09:45:51.668Z,9.35
2018-09-02T09:49:52.584Z,8.3
2018-09-02T09:55:53.262Z,6.09
2018-09-02T09:59:53.819Z,6.87
2018-09-02T10:05:55.072Z,6.19
2018-09-02T10:09:56.405Z,6.35
2018-09-02T10:11:57.551Z,6.65
2018-09-02T10:15:58.896Z,6.63
2018-09-02T10:22:00.108Z,6.12
2018-09-02T10:26:01.385Z,6.53
2018-09-02T10:32:02.908Z,6.99
2018-09-02T10:36:03.848Z,6.79
2018-09-02T10:38:04.939Z,7.39
2018-09-02T10:42:05.438Z,7.65
2018-09-02T10:48:06.004Z,5.91
2018-09-02T10:52:06.550Z,6.14
2018-09-02T10:58:07.054Z,7.13
2018-09-02T11:04:07.704Z,10.2
2018-09-02T11:08:08.367Z,7.97
2018-09-02T11:14:08.890Z,7.22
2018-09-02T11:18:09.387Z,6.68
2018-09-02T11:24:09.847Z,6.65
2018-09-02T11:30:11.030Z,5.72
2018-09-02T11:34:11.532Z,6.3
2018-09-02T11:40:12.039Z,6.49
2018-09-02T11:44:12.565Z,5.75
2018-09-02T11:46:13.094Z,5.99
2018-09-02T11:50:13.614Z,6.06
2018-09-02T11:56:14.541Z,5.05
2018-09-02T12:00:15.578Z,6.13
2018-09-02T12:06:16.037Z,6.04
2018-09-02T12:10:16.621Z,5.53
2018-09-02T12:12:17.096Z,5.93
2018-09-02T12:16:17.565Z,5.77
2018-09-02T12:22:18.151Z,4.73
2018-09-02T12:26:18.678Z,6.32
2018-09-02T12:32:19.225Z,5
2018-09-02T12:38:19.790Z,4.63
2018-09-02T12:42:20.540Z,4.61
2018-09-02T12:48:20.858Z,5.6
2018-09-02T12:52:21.226Z,6.54
2018-09-02T12:58:21.850Z,6.08
2018-09-02T13:04:23.050Z,5.65
2018-09-02T13:08:24.411Z,5.89
2018-09-02T13:14:25.626Z,6.2
2018-09-02T13:18:26.957Z,5.36
2018-09-02T13:24:28.168Z,6.32
2018-09-02T13:30:29.447Z,5.97
2018-09-02T13:34:30.818Z,6.17
2018-09-02T13:40:32.262Z,6.51
2018-09-02T13:44:32.738Z,5.03
2018-09-02T13:46:33.294Z,4.53
2018-09-02T13:50:33.862Z,5.75
2018-09-02T13:56:34.392Z,8.36
2018-09-02T14:00:34.888Z,6.56
2018-09-02T14:06:35.520Z,4.38
2018-09-02T14:10:35.914Z,5.45
2018-09-02T14:12:36.469Z,5.27
2018-09-02T14:16:36.968Z,6.06
2018-09-02T14:22:37.550Z,5.9
2018-09-02T14:26:38.333Z,4.78
2018-09-02T14:32:38.951Z,4.93
2018-09-02T14:36:39.500Z,5.2
2018-09-02T14:38:39.941Z,3.98
2018-09-02T14:42:40.454Z,5.14
2018-09-02T14:48:41.016Z,4.68
2018-09-02T14:52:41.489Z,4.92
2018-09-02T14:58:42.094Z,4.52
2018-09-02T15:04:42.585Z,4.59
2018-09-02T15:08:43.126Z,5.34
2018-09-02T15:14:43.612Z,5.54
2018-09-02T15:18:44.141Z,5.34
2018-09-02T15:24:44.631Z,5.67
2018-09-02T15:30:45.158Z,5.1
2018-09-02T15:34:45.616Z,4.97
2018-09-02T15:40:46.148Z,4.85
2018-09-02T15:44:46.608Z,4.34
2018-09-02T15:46:47.251Z,3.82
2018-09-02T15:50:47.819Z,4.15
2018-09-02T15:56:48.426Z,4.85
2018-09-02T16:00:48.947Z,5.59
2018-09-02T16:06:49.440Z,5.62
2018-09-02T16:10:50.015Z,4.97
2018-09-02T16:12:50.426Z,6.56
2018-09-02T16:16:50.955Z,5.93
2018-09-02T16:22:51.488Z,6.58
2018-09-02T16:26:51.994Z,7.45
2018-09-02T16:32:52.563Z,4.5
2018-09-02T16:38:53.194Z,5.77
2018-09-02T16:42:53.691Z,4.31
2018-09-02T16:48:54.252Z,4.64
2018-09-02T16:52:54.953Z,5
2018-09-02T16:58:55.398Z,7.05
2018-09-02T17:04:55.994Z,5.91
2018-09-02T17:08:56.581Z,6.71
2018-09-02T17:14:57.201Z,4.37
2018-09-02T17:18:57.660Z,4.59
2018-09-02T17:20:58.167Z,4.3
2018-09-02T17:24:58.716Z,5.66
2018-09-02T17:30:59.350Z,4.98
2018-09-02T17:34:59.807Z,4.71
2018-09-02T17:41:00.350Z,6.14
2018-09-02T17:45:00.952Z,5.41
2018-09-02T17:47:01.447Z,4.7
2018-09-02T17:51:01.977Z,5.31
2018-09-02T17:57:02.510Z,6.55
2018-09-02T18:01:03.044Z,5.81
2018-09-02T18:07:03.746Z,5.58
2018-09-02T18:13:04.286Z,5.13
2018-09-02T18:17:04.849Z,5.65
2018-09-02T18:23:05.428Z,4.46
2018-09-02T18:27:05.977Z,5.96
2018-09-02T18:33:06.377Z,5.84
2018-09-02T18:39:07.077Z,5.41
2018-09-02T18:43:07.429Z,4.83
2018-09-02T18:49:07.934Z,6.42
2018-09-02T18:53:08.388Z,5.99
2018-09-02T18:55:08.970Z,5.85
2018-09-02T18:59:09.514Z,5.41
2018-09-02T19:05:10.160Z,5.77
2018-09-02T19:09:10.887Z,5.76
2018-09-02T19:15:11.732Z,5.6
2018-09-02T19:19:12.345Z,4.93
2018-09-02T19:21:12.815Z,7.05
2018-09-02T19:25:13.371Z,6.27
2018-09-02T19:31:13.905Z,6.12
2018-09-02T19:35:14.397Z,5.05
2018-09-02T19:41:14.970Z,5.27
2018-09-02T19:45:15.769Z,6.12
2018-09-02T19:47:16.207Z,6.05
2018-09-02T19:51:16.725Z,5.49
2018-09-02T19:57:17.244Z,5.74
2018-09-02T20:01:17.798Z,5.65
2018-09-02T20:07:18.307Z,6.31
2018-09-02T20:13:18.838Z,6.32
2018-09-02T20:17:19.438Z,6.46
2018-09-02T20:23:19.922Z,14.53
2018-09-02T20:27:20.554Z,14.44
2018-09-02T20:33:21.186Z,25.57
2018-09-02T20:39:21.664Z,11.31
2018-09-02T20:43:22.066Z,12.05
2018-09-02T20:49:22.649Z,9.4
2018-09-02T20:53:23.131Z,7.69
2018-09-02T20:55:23.605Z,9.21
2018-09-02T20:59:24.070Z,8.54
2018-09-02T21:05:24.557Z,8.61
2018-09-02T21:09:25.046Z,7.55
2018-09-02T21:15:26.106Z,7.28
2018-09-02T21:19:26.668Z,6.52
2018-09-02T21:21:27.108Z,5.86
2018-09-02T21:25:27.702Z,6.04
2018-09-02T21:31:28.172Z,8.6
2018-09-02T21:35:28.665Z,7.93
2018-09-02T21:41:29.227Z,6.7
2018-09-02T21:47:29.804Z,6.92
2018-09-02T21:51:30.273Z,7.49
2018-09-02T21:57:30.811Z,6.58
2018-09-02T22:01:31.347Z,6.51
2018-09-02T22:07:31.913Z,9.78
2018-09-02T22:13:32.423Z,6.34
2018-09-02T22:17:32.842Z,6.78
2018-09-02T22:23:33.536Z,6.51
2018-09-02T22:27:34.030Z,7.28
2018-09-02T22:33:34.612Z,6.96
2018-09-02T22:39:35.136Z,6.87
2018-09-02T22:43:35.872Z,7.76
2018-09-02T22:49:36.417Z,7.08
2018-09-02T22:53:36.924Z,7.39
2018-09-02T22:55:37.399Z,6.25
2018-09-02T22:59:37.948Z,6.86
2018-09-02T23:05:38.477Z,6.54
2018-09-02T23:09:39.001Z,7.74
2018-09-02T23:15:39.521Z,7.41
2018-09-02T23:19:40.098Z,7.27
2018-09-02T23:21:40.545Z,6.63
2018-09-02T23:25:41.213Z,6.18
2018-09-02T23:31:41.702Z,5.75
2018-09-02T23:35:42.212Z,5.45
2018-09-02T23:41:42.758Z,6.86
2018-09-02T23:47:43.372Z,6.28
2018-09-02T23:51:43.994Z,6.53
2018-09-02T23:57:44.403Z,5.54
